Time;durP1;ratioP1;P1;durP2;ratioP2;P2;SDS_P1;SDS_P2;PMS_P1;PMS_P2;Temp;Humidity;BMP_temperature;BMP_pressure;BME280_temperature;BME280_humidity;BME280_pressure;Samples;Min_cycle;Max_cycle;Signal;HPM_P1;HPM_P2
2020/12/05 00:01:59;;;;;;;11.37;4.40;;;2.70;85.50;;;;;;5055769;28;20025;-75
2020/12/05 00:04:25;;;;;;;10.73;4.53;;;2.70;85.60;;;;;;5055504;28;20032;-74
2020/12/05 00:06:51;;;;;;;10.40;4.70;;;2.70;85.80;;;;;;5055465;28;20025;-74
2020/12/05 00:09:16;;;;;;;7.93;4.20;;;2.70;85.90;;;;;;5057090;28;20044;-76
2020/12/05 00:11:42;;;;;;;8.57;4.63;;;2.70;86.00;;;;;;5055416;28;20046;-74
2020/12/05 00:14:08;;;;;;;8.30;4.43;;;2.70;86.10;;;;;;5055560;28;20029;-75
2020/12/05 00:16:33;;;;;;;9.33;4.77;;;2.70;86.30;;;;;;5038658;28;20052;-75
2020/12/05 00:18:59;;;;;;;11.77;4.60;;;2.70;86.40;;;;;;5055119;28;20037;-74
2020/12/05 00:21:25;;;;;;;8.23;4.27;;;2.70;86.50;;;;;;5038680;28;20024;-75
2020/12/05 00:23:52;;;;;;;8.30;4.50;;;2.70;86.60;;;;;;5038655;28;20086;-75
2020/12/05 00:26:21;;;;;;;8.93;4.30;;;2.70;86.70;;;;;;5038543;28;20496;-75
2020/12/05 00:28:48;;;;;;;8.57;4.63;;;2.70;86.70;;;;;;5038555;28;20041;-74
2020/12/05 00:31:15;;;;;;;11.60;4.97;;;2.80;86.90;;;;;;5056422;28;20021;-74
2020/12/05 00:33:41;;;;;;;10.07;5.00;;;2.70;86.80;;;;;;5056170;28;20476;-74
2020/12/05 00:36:08;;;;;;;10.37;4.90;;;2.70;86.90;;;;;;5055046;28;20180;-75
2020/12/05 00:38:35;;;;;;;10.17;4.87;;;2.70;86.90;;;;;;5055037;28;20567;-75
2020/12/05 00:41:03;;;;;;;9.27;4.47;;;2.70;87.00;;;;;;5038071;28;20480;-74
2020/12/05 00:43:33;;;;;;;11.53;4.97;;;2.70;87.80;;;;;;5054998;28;20082;-75
2020/12/05 00:45:59;;;;;;;9.00;4.33;;;2.70;87.20;;;;;;5054703;28;20025;-74
2020/12/05 00:48:24;;;;;;;10.33;5.30;;;2.70;87.20;;;;;;5053864;28;20106;-74
2020/12/05 00:50:50;;;;;;;10.57;5.47;;;2.70;87.30;;;;;;5038112;28;20025;-75
2020/12/05 00:53:16;;;;;;;11.13;4.97;;;2.70;87.30;;;;;;5054752;28;20029;-75
2020/12/05 00:55:45;;;;;;;11.73;5.27;;;2.70;87.30;;;;;;5038055;28;20460;-75
2020/12/05 00:58:11;;;;;;;10.13;5.00;;;2.70;87.30;;;;;;5037999;28;20357;-75
2020/12/05 01:00:37;;;;;;;9.50;4.77;;;2.60;87.20;;;;;;5054830;28;20484;-82
2020/12/05 01:03:02;;;;;;;11.20;5.30;;;2.70;87.20;;;;;;5054698;28;20048;-82
2020/12/05 01:05:29;;;;;;;9.17;4.60;;;2.60;87.10;;;;;;5054587;28;20484;-81
2020/12/05 01:07:55;;;;;;;9.47;4.63;;;2.60;87.20;;;;;;5038227;28;20071;-81
2020/12/05 01:10:20;;;;;;;10.17;4.87;;;2.60;87.20;;;;;;5037898;28;20022;-81
2020/12/05 01:12:46;;;;;;;9.50;4.43;;;2.50;87.20;;;;;;5054642;28;20108;-81
2020/12/05 01:15:12;;;;;;;8.53;4.40;;;2.50;87.10;;;;;;5037690;28;20029;-81
2020/12/05 01:17:37;;;;;;;10.27;4.60;;;2.50;87.10;;;;;;5054224;28;20036;-81
2020/12/05 01:20:07;;;;;;;10.23;4.63;;;2.40;87.10;;;;;;5054507;28;20056;-81
2020/12/05 01:22:32;;;;;;;8.87;4.27;;;2.40;87.10;;;;;;5055450;28;20037;-81
2020/12/05 01:24:58;;;;;;;8.80;4.43;;;2.40;87.10;;;;;;5037371;28;20032;-82
2020/12/05 01:27:24;;;;;;;11.90;5.20;;;2.30;87.10;;;;;;5054046;28;20069;-82
2020/12/05 01:29:50;;;;;;;8.77;4.70;;;2.30;87.30;;;;;;5037377;28;20070;-82
2020/12/05 01:32:15;;;;;;;10.53;5.00;;;2.30;87.30;;;;;;5037433;28;20017;-82
2020/12/05 01:34:41;;;;;;;9.70;4.87;;;2.30;87.30;;;;;;5054206;28;20033;-82
2020/12/05 01:37:07;;;;;;;10.80;5.10;;;2.20;87.40;;;;;;5037341;28;20467;-81
2020/12/05 01:39:33;;;;;;;12.07;5.03;;;2.20;87.50;;;;;;5053843;28;20057;-81
2020/12/05 01:41:59;;;;;;;9.07;4.17;;;2.20;87.60;;;;;;5053915;28;20590;-81
2020/12/05 01:44:24;;;;;;;9.97;4.73;;;2.20;87.80;;;;;;5037185;28;20032;-81
2020/12/05 01:46:52;;;;;;;11.13;5.00;;;2.20;87.90;;;;;;5053453;28;20037;-81
2020/12/05 01:49:20;;;;;;;11.37;4.57;;;2.20;88.00;;;;;;5055016;28;20099;-81
2020/12/05 01:51:46;;;;;;;10.33;5.20;;;2.10;88.00;;;;;;5053748;28;20488;-81
2020/12/05 01:54:13;;;;;;;10.73;4.50;;;2.20;88.20;;;;;;5037023;28;20052;-81
2020/12/05 01:56:41;;;;;;;14.90;5.47;;;2.10;88.30;;;;;;5054742;28;20028;-81
2020/12/05 01:59:07;;;;;;;11.53;5.13;;;2.10;88.40;;;;;;5052402;28;20037;-81
2020/12/05 02:01:34;;;;;;;10.50;4.77;;;2.10;88.50;;;;;;5053457;28;20032;-81
2020/12/05 02:04:01;;;;;;;10.70;5.00;;;2.10;88.70;;;;;;5054734;28;20045;-82
2020/12/05 02:06:46;;;;;;;8.27;4.67;;;2.10;88.90;;;;;;5036889;28;20033;-82
2020/12/05 02:09:17;;;;;;;9.77;5.00;;;2.10;89.00;;;;;;5053373;28;20035;-81
2020/12/05 02:11:52;;;;;;;9.93;4.63;;;2.10;89.00;;;;;;5053131;28;20479;-81
2020/12/05 02:14:21;;;;;;;14.97;5.30;;;2.10;89.00;;;;;;5053252;28;20108;-81
2020/12/05 02:16:50;;;;;;;8.63;5.03;;;2.20;89.20;;;;;;5054398;28;20021;-81
2020/12/05 02:19:18;;;;;;;9.63;4.93;;;2.20;89.20;;;;;;5054856;28;20079;-82
2020/12/05 02:21:47;;;;;;;10.37;5.27;;;2.10;89.80;;;;;;5053072;28;20025;-82
2020/12/05 02:24:13;;;;;;;9.67;4.50;;;2.20;89.40;;;;;;5052987;28;20025;-81
2020/12/05 02:26:41;;;;;;;9.03;4.63;;;2.20;89.40;;;;;;5036371;28;20102;-81
2020/12/05 02:29:08;;;;;;;12.30;4.90;;;2.20;89.40;;;;;;5054188;28;20029;-81
2020/12/05 02:31:34;;;;;;;8.80;4.77;;;2.20;89.50;;;;;;5036613;28;20025;-81
2020/12/05 02:34:00;;;;;;;9.27;5.07;;;2.40;89.70;;;;;;5053071;28;20025;-82
2020/12/05 02:36:25;;;;;;;10.60;4.53;;;2.20;89.70;;;;;;5054181;28;20357;-81
2020/12/05 02:39:06;;;;;;;9.20;5.20;;;2.30;89.80;;;;;;5054078;28;20033;-82
2020/12/05 02:41:37;;;;;;;12.50;5.53;;;2.30;90.20;;;;;;5054494;28;20025;-82
2020/12/05 02:44:02;;;;;;;13.33;5.83;;;2.30;89.80;;;;;;5054057;28;20130;-83
2020/12/05 02:46:28;;;;;;;9.70;4.73;;;2.40;89.80;;;;;;5035965;28;20120;-81
2020/12/05 02:48:54;;;;;;;10.43;5.27;;;2.40;90.00;;;;;;5036126;28;20098;-82
2020/12/05 02:51:20;;;;;;;12.97;5.10;;;2.40;90.00;;;;;;5035960;28;20065;-81
2020/12/05 02:53:46;;;;;;;8.37;4.37;;;2.40;90.00;;;;;;5035790;28;20025;-81
2020/12/05 02:56:18;;;;;;;9.43;4.83;;;2.40;90.00;;;;;;5035862;28;20060;-82
2020/12/05 02:58:45;;;;;;;10.00;5.30;;;2.50;90.40;;;;;;5052514;28;20035;-82
2020/12/05 03:01:11;;;;;;;10.93;4.63;;;2.50;90.10;;;;;;5035895;28;20029;-81
2020/12/05 03:03:37;;;;;;;9.10;4.37;;;2.50;90.20;;;;;;5052202;28;20037;-81
2020/12/05 03:06:03;;;;;;;11.37;4.93;;;2.50;90.40;;;;;;5052370;28;20033;-81
2020/12/05 03:08:29;;;;;;;9.70;4.70;;;2.50;90.20;;;;;;5035826;28;20033;-81
2020/12/05 03:10:54;;;;;;;12.03;5.00;;;2.50;90.20;;;;;;5052293;28;20057;-81
2020/12/05 03:13:20;;;;;;;9.53;4.50;;;2.50;90.20;;;;;;5036027;28;20021;-81
2020/12/05 03:15:45;;;;;;;10.57;4.60;;;2.60;90.30;;;;;;5052485;28;20040;-81
2020/12/05 03:18:11;;;;;;;8.53;4.30;;;2.60;90.20;;;;;;5035720;28;20032;-81
2020/12/05 03:20:37;;;;;;;9.57;4.33;;;2.60;90.20;;;;;;5035651;28;20467;-81
2020/12/05 03:23:02;;;;;;;10.13;4.80;;;2.60;90.20;;;;;;5052275;28;20063;-82
2020/12/05 03:25:28;;;;;;;8.50;4.23;;;2.60;90.20;;;;;;5035488;28;20021;-81
2020/12/05 03:27:54;;;;;;;11.17;4.60;;;2.70;90.30;;;;;;5052175;28;20032;-81
2020/12/05 03:30:19;;;;;;;7.93;4.40;;;2.70;90.20;;;;;;5035547;28;20059;-81
2020/12/05 03:32:46;;;;;;;8.43;3.70;;;2.70;90.20;;;;;;5052103;28;20032;-82
2020/12/05 03:35:11;;;;;;;9.53;4.57;;;2.70;90.30;;;;;;5051949;28;20116;-82
2020/12/05 03:37:37;;;;;;;10.77;4.63;;;2.70;90.30;;;;;;5052084;28;20120;-82
2020/12/05 03:40:04;;;;;;;11.07;4.67;;;2.70;90.30;;;;;;5051852;28;20473;-82
2020/12/05 03:42:29;;;;;;;9.83;5.23;;;2.70;90.30;;;;;;5052018;28;20021;-81
2020/12/05 03:44:55;;;;;;;13.00;4.93;;;2.70;90.30;;;;;;5051801;28;20029;-82
2020/12/05 03:47:21;;;;;;;9.63;4.33;;;2.70;90.30;;;;;;5045728;28;20041;-81
2020/12/05 03:49:47;;;;;;;10.30;4.43;;;2.70;90.60;;;;;;5055092;28;20037;-81
2020/12/05 03:52:13;;;;;;;10.63;4.53;;;2.70;90.30;;;;;;5071784;28;20033;-81
2020/12/05 03:54:38;;;;;;;10.13;4.67;;;2.70;90.30;;;;;;5071764;28;20036;-82
2020/12/05 03:57:04;;;;;;;10.47;4.87;;;2.80;90.30;;;;;;5071808;28;20111;-81
2020/12/05 03:59:29;;;;;;;10.07;4.97;;;2.80;90.30;;;;;;5055086;28;20050;-81
2020/12/05 04:01:55;;;;;;;10.77;5.57;;;2.80;90.30;;;;;;5072912;28;20036;-81
2020/12/05 04:04:21;;;;;;;9.13;5.37;;;2.70;90.30;;;;;;5055066;28;20070;-81
2020/12/05 04:06:46;;;;;;;8.50;4.90;;;2.70;90.30;;;;;;5054879;28;20044;-82
2020/12/05 04:09:12;;;;;;;11.33;4.93;;;2.70;90.30;;;;;;5073177;28;20472;-81
2020/12/05 04:11:39;;;;;;;10.87;4.93;;;2.70;90.30;;;;;;5071594;28;20036;-82
2020/12/05 04:14:06;;;;;;;10.17;5.00;;;2.70;90.30;;;;;;5072990;28;20032;-81
2020/12/05 04:16:32;;;;;;;12.20;5.60;;;2.70;90.30;;;;;;5072934;28;20036;-82
2020/12/05 04:18:58;;;;;;;11.40;5.47;;;2.70;90.30;;;;;;5054946;28;20037;-81
2020/12/05 04:21:23;;;;;;;12.47;5.53;;;2.70;90.30;;;;;;5072858;28;20039;-82
2020/12/05 04:23:49;;;;;;;12.27;5.93;;;2.70;90.30;;;;;;5058055;28;20040;-82
2020/12/05 04:26:15;;;;;;;12.87;5.90;;;2.70;90.30;;;;;;5041953;28;20037;-81
2020/12/05 04:28:40;;;;;;;9.90;4.97;;;2.70;90.30;;;;;;5058841;28;20028;-82
2020/12/05 04:31:06;;;;;;;11.83;6.33;;;2.60;90.30;;;;;;5058579;28;20039;-82
2020/12/05 04:33:31;;;;;;;11.47;4.87;;;2.60;90.30;;;;;;5075099;28;20057;-82
2020/12/05 04:35:57;;;;;;;11.00;5.40;;;2.60;90.30;;;;;;5075178;28;20029;-81
2020/12/05 04:38:23;;;;;;;11.77;5.30;;;2.60;90.30;;;;;;5075230;28;20464;-81
2020/12/05 04:40:48;;;;;;;9.73;5.13;;;2.60;90.30;;;;;;5076278;28;20059;-81
2020/12/05 04:43:14;;;;;;;12.50;5.77;;;2.50;90.30;;;;;;5075141;28;20456;-82
2020/12/05 04:45:41;;;;;;;12.23;5.60;;;2.50;90.40;;;;;;5074922;28;20032;-81
2020/12/05 04:48:08;;;;;;;10.83;5.00;;;2.50;90.40;;;;;;5074910;28;20048;-82
2020/12/05 04:50:35;;;;;;;11.13;6.00;;;2.50;90.40;;;;;;5058285;28;20032;-82
2020/12/05 04:53:10;;;;;;;12.90;6.30;;;2.50;90.40;;;;;;5058352;28;20029;-82
2020/12/05 04:55:40;;;;;;;9.77;5.40;;;2.50;90.40;;;;;;5076109;28;20028;-82
2020/12/05 04:58:24;;;;;;;12.47;6.37;;;2.50;90.40;;;;;;5075949;28;20033;-82
2020/12/05 05:00:57;;;;;;;17.20;6.83;;;2.40;90.30;;;;;;5074864;28;20479;-82
2020/12/05 05:03:25;;;;;;;11.05;5.63;;;2.40;90.60;;;;;;5075923;28;20055;-81
2020/12/05 05:05:53;;;;;;;10.70;5.40;;;2.40;90.30;;;;;;5074533;28;20059;-81
2020/12/05 05:08:19;;;;;;;16.57;6.57;;;2.40;90.30;;;;;;5074506;28;20028;-82
2020/12/05 05:10:45;;;;;;;11.30;6.27;;;2.30;90.30;;;;;;5074444;28;20017;-81
2020/12/05 05:15:41;;;;;;;11.77;6.27;;;2.30;90.30;;;;;;5075054;28;20480;-81
2020/12/05 05:18:07;;;;;;;11.23;6.37;;;2.20;90.30;;;;;;5057704;28;20051;-81
2020/12/05 05:20:39;;;;;;;10.90;6.30;;;2.20;90.40;;;;;;5074315;28;20016;-81
2020/12/05 05:23:12;;;;;;;12.10;5.73;;;2.20;90.40;;;;;;5075547;28;20085;-81
2020/12/05 05:25:57;;;;;;;11.33;6.20;;;2.20;90.60;;;;;;5074300;28;20031;-82
2020/12/05 05:28:30;;;;;;;12.90;5.97;;;2.20;90.40;;;;;;5057486;28;20021;-82
2020/12/05 05:31:49;;;;;;;14.53;5.67;;;2.10;90.30;;;;;;5057652;28;20119;-82
2020/12/05 05:33:49;;;;;;;10.60;5.60;;;2.10;90.30;;;;;;5077970;28;20052;-82
2020/12/05 05:36:19;;;;;;;12.07;6.10;;;2.10;90.40;;;;;;5075191;28;20078;-81
2020/12/05 05:38:55;;;;;;;11.33;6.10;;;2.00;90.30;;;;;;5073936;28;20025;-82
2020/12/05 05:41:21;;;;;;;11.03;5.50;;;2.00;90.30;;;;;;5074899;28;20020;-82
2020/12/05 05:43:57;;;;;;;16.07;6.37;;;2.00;90.40;;;;;;5075026;28;20033;-81
2020/12/05 05:46:31;;;;;;;11.17;5.43;;;2.00;90.40;;;;;;5074997;28;20047;-81
2020/12/05 05:48:58;;;;;;;7.43;4.10;;;2.00;90.40;;;;;;5080181;28;20037;-81
2020/12/05 05:51:45;;;;;;;11.80;5.93;;;2.00;90.40;;;;;;5073742;28;20024;-81
2020/12/05 05:54:31;;;;;;;13.63;5.63;;;2.00;90.40;;;;;;5070193;28;20036;-82
2020/12/05 05:57:05;;;;;;;10.57;5.57;;;2.00;90.70;;;;;;5058922;28;20025;-75
2020/12/05 05:59:36;;;;;;;9.23;5.17;;;1.90;90.40;;;;;;5053957;28;20064;-75
2020/12/05 06:02:04;;;;;;;10.80;5.57;;;1.90;90.40;;;;;;5058021;28;20054;-75
2020/12/05 06:04:45;;;;;;;12.50;5.87;;;1.90;90.40;;;;;;5056840;28;20031;-75
2020/12/05 06:07:18;;;;;;;9.77;5.03;;;1.90;90.40;;;;;;5060075;28;20079;-75
2020/12/05 06:09:46;;;;;;;9.03;5.20;;;1.90;90.40;;;;;;5051188;28;20082;-75
2020/12/05 06:12:18;;;;;;;10.10;5.13;;;1.80;90.50;;;;;;5074376;28;20052;-75
2020/12/05 06:14:44;;;;;;;7.90;4.50;;;1.80;90.50;;;;;;5074347;28;20021;-75
2020/12/05 06:17:10;;;;;;;11.50;4.93;;;1.80;90.50;;;;;;5072851;28;20396;-75
2020/12/05 06:19:39;;;;;;;9.60;4.87;;;1.90;90.50;;;;;;5058308;28;20027;-81
2020/12/05 06:22:46;;;;;;;10.07;4.73;;;1.70;90.40;;;;;;5078314;28;20025;-82
2020/12/05 06:25:14;;;;;;;9.43;4.37;;;1.70;90.50;;;;;;5058645;28;20026;-81
2020/12/05 06:27:47;;;;;;;9.93;5.17;;;1.70;90.50;;;;;;5058593;28;20484;-82
2020/12/05 06:30:13;;;;;;;11.35;5.00;;;1.70;90.50;;;;;;5064646;28;20036;-81
2020/12/05 06:32:43;;;;;;;8.50;4.47;;;1.60;90.50;;;;;;5041004;28;20023;-81
2020/12/05 06:35:21;;;;;;;10.30;5.20;;;1.60;90.50;;;;;;5075932;28;20035;-82
2020/12/05 06:37:48;;;;;;;11.07;4.57;;;1.60;90.60;;;;;;5077315;28;20357;-82
2020/12/05 06:40:14;;;;;;;12.37;5.47;;;1.60;90.60;;;;;;5074445;28;20052;-81
2020/12/05 06:42:45;;;;;;;12.17;5.33;;;1.60;90.60;;;;;;5073616;28;20613;-81
2020/12/05 06:45:26;;;;;;;10.10;5.40;;;1.60;90.70;;;;;;5075448;28;20108;-82
2020/12/05 06:48:15;;;;;;;11.30;5.13;;;1.60;90.80;;;;;;5074265;28;20036;-82
2020/12/05 06:50:43;;;;;;;10.00;5.17;;;1.50;90.80;;;;;;5074029;28;20383;-82
2020/12/05 06:53:21;;;;;;;9.53;5.57;;;1.60;90.90;;;;;;5072812;28;20353;-81
2020/12/05 06:55:48;;;;;;;11.30;6.07;;;1.60;90.90;;;;;;5074041;28;20017;-82
2020/12/05 06:58:13;;;;;;;11.73;6.30;;;1.60;91.00;;;;;;5074097;28;20028;-82
2020/12/05 07:00:40;;;;;;;13.77;6.97;;;1.60;91.10;;;;;;5056101;28;20035;-82
2020/12/05 07:03:10;;;;;;;13.17;6.90;;;1.60;91.10;;;;;;5056896;28;20087;-81
2020/12/05 07:05:43;;;;;;;12.30;7.30;;;1.70;91.20;;;;;;5072996;28;20024;-82
2020/12/05 07:08:37;;;;;;;14.00;7.38;;;1.70;91.50;;;;;;5072685;28;20020;-82
2020/12/05 07:11:16;;;;;;;12.80;7.40;;;1.80;91.20;;;;;;5073129;28;20027;-82
2020/12/05 07:13:50;;;;;;;12.20;7.33;;;1.80;91.30;;;;;;5072492;28;20032;-81
2020/12/05 07:16:22;;;;;;;13.35;7.32;;;1.80;91.20;;;;;;5055823;28;20031;-83
2020/12/05 07:18:52;;;;;;;13.47;7.53;;;1.90;91.30;;;;;;5072380;28;20021;-80
2020/12/05 07:21:18;;;;;;;14.43;7.57;;;1.90;91.30;;;;;;5073775;28;20375;-82
2020/12/05 07:23:45;;;;;;;14.70;7.60;;;1.90;91.30;;;;;;5052082;28;20389;-80
2020/12/05 07:26:11;;;;;;;14.17;8.20;;;1.90;91.40;;;;;;5018965;28;20029;-82
2020/12/05 07:28:37;;;;;;;12.97;7.57;;;1.90;91.40;;;;;;5053223;28;20025;-82
2020/12/05 07:31:04;;;;;;;12.83;7.53;;;2.00;91.70;;;;;;5051932;28;20078;-82
2020/12/05 07:33:33;;;;;;;13.00;7.23;;;1.90;91.40;;;;;;5053317;28;20097;-80
2020/12/05 07:36:05;;;;;;;15.27;8.43;;;2.10;91.50;;;;;;5053140;28;20029;-80
2020/12/05 07:38:35;;;;;;;14.90;8.50;;;2.00;91.50;;;;;;5052084;28;20021;-82
2020/12/05 07:41:12;;;;;;;13.57;7.80;;;2.00;91.50;;;;;;5035842;28;20021;-82
2020/12/05 07:43:38;;;;;;;15.00;7.80;;;2.00;91.60;;;;;;5035688;28;20033;-82
2020/12/05 07:46:05;;;;;;;13.97;8.00;;;2.10;91.60;;;;;;5051878;28;20048;-82
2020/12/05 07:48:32;;;;;;;13.27;8.10;;;2.10;91.60;;;;;;5053139;28;20049;-81
2020/12/05 07:50:57;;;;;;;16.30;8.30;;;2.10;91.60;;;;;;5051883;28;20107;-80
2020/12/05 07:53:26;;;;;;;12.97;7.83;;;2.10;91.60;;;;;;5051671;28;20056;-81
2020/12/05 07:55:52;;;;;;;12.47;7.33;;;2.20;91.60;;;;;;5051792;28;20498;-81
2020/12/05 07:58:18;;;;;;;13.37;7.43;;;2.20;91.60;;;;;;5054156;28;20037;-81
2020/12/05 08:00:44;;;;;;;14.43;7.83;;;2.20;91.60;;;;;;5065230;28;20029;-80
2020/12/05 08:03:36;;;;;;;16.50;8.13;;;2.20;91.50;;;;;;5067647;28;20025;-80
2020/12/05 08:06:14;;;;;;;10.37;6.30;;;2.20;91.50;;;;;;5056842;28;20543;-81
2020/12/05 08:08:49;;;;;;;12.57;6.57;;;2.20;91.50;;;;;;5057251;28;20028;-81
2020/12/05 08:11:16;;;;;;;14.50;7.27;;;2.20;91.50;;;;;;5055679;28;20021;-83
2020/12/05 08:13:42;;;;;;;12.40;7.40;;;2.20;91.40;;;;;;5057026;28;20104;-81
2020/12/05 08:16:08;;;;;;;11.43;7.33;;;2.20;91.40;;;;;;5041031;28;20067;-82
2020/12/05 08:18:36;;;;;;;10.73;6.37;;;2.20;91.40;;;;;;5059126;28;20034;-83
2020/12/05 08:21:03;;;;;;;12.70;7.17;;;2.20;91.40;;;;;;5075637;28;20021;-81
2020/12/05 08:23:35;;;;;;;12.53;6.87;;;2.20;91.50;;;;;;5055647;28;20057;-81
2020/12/05 08:26:14;;;;;;;13.10;6.87;;;2.30;91.60;;;;;;5067322;28;20400;-83
2020/12/05 08:28:42;;;;;;;11.53;6.70;;;2.40;91.60;;;;;;5071027;28;20028;-80
2020/12/05 08:31:12;;;;;;;13.67;7.30;;;2.40;91.70;;;;;;5056578;28;20052;-82
2020/12/05 08:33:48;;;;;;;12.17;6.87;;;2.30;91.70;;;;;;5069405;28;20020;-81
2020/12/05 08:36:39;;;;;;;11.23;6.97;;;2.50;91.70;;;;;;5071851;28;20024;-81
2020/12/05 08:39:07;;;;;;;11.33;6.87;;;2.50;91.70;;;;;;5054540;28;20033;-81
2020/12/05 08:41:46;;;;;;;13.23;6.80;;;2.50;91.70;;;;;;5056473;28;20429;-81
2020/12/05 08:44:17;;;;;;;11.33;6.57;;;2.60;91.80;;;;;;5057984;28;20036;-81
2020/12/05 08:46:43;;;;;;;13.10;6.37;;;2.70;91.90;;;;;;5058467;28;20024;-84
2020/12/05 08:49:16;;;;;;;13.53;6.97;;;2.70;92.10;;;;;;5074940;28;20056;-82
2020/12/05 08:51:49;;;;;;;12.65;7.28;;;2.90;91.90;;;;;;5058412;28;20089;-81
2020/12/05 08:54:15;;;;;;;12.60;7.27;;;2.90;92.00;;;;;;5076172;28;20016;-81
2020/12/05 08:56:41;;;;;;;12.70;7.37;;;3.00;92.00;;;;;;5074892;28;20480;-82
2020/12/05 08:59:07;;;;;;;13.03;7.10;;;3.10;91.90;;;;;;5058232;28;20139;-83
2020/12/05 09:01:41;;;;;;;11.50;6.90;;;3.10;91.90;;;;;;5074665;28;20384;-81
2020/12/05 09:04:08;;;;;;;14.23;7.40;;;3.30;91.90;;;;;;5076064;28;20143;-82
2020/12/05 09:06:34;;;;;;;11.07;6.40;;;3.30;91.90;;;;;;5058305;28;20475;-83
2020/12/05 09:09:00;;;;;;;14.80;7.10;;;3.30;91.80;;;;;;5066719;28;20104;-83
2020/12/05 09:11:25;;;;;;;12.80;7.00;;;3.40;91.80;;;;;;5054876;28;20106;-83
2020/12/05 09:13:52;;;;;;;12.63;6.97;;;3.50;91.80;;;;;;5057830;28;20020;-80
2020/12/05 09:16:18;;;;;;;11.37;6.80;;;3.50;91.80;;;;;;5052219;28;20040;-79
2020/12/05 09:18:50;;;;;;;12.67;6.93;;;3.60;91.90;;;;;;5057778;28;20036;-80
2020/12/05 09:21:19;;;;;;;13.67;6.73;;;3.70;91.90;;;;;;5073962;28;20033;-80
2020/12/05 09:23:58;;;;;;;10.67;6.63;;;3.90;91.90;;;;;;5075764;28;20386;-80
2020/12/05 09:26:23;;;;;;;10.83;5.67;;;4.10;91.80;;;;;;5075664;28;20119;-80
2020/12/05 09:28:49;;;;;;;9.07;4.83;;;4.40;91.90;;;;;;5068636;28;20043;-80
2020/12/05 09:31:15;;;;;;;8.40;5.03;;;4.80;92.20;;;;;;5069006;28;20472;-80
2020/12/05 09:33:44;;;;;;;8.73;3.90;;;5.20;92.50;;;;;;5057859;28;20016;-78
2020/12/05 09:36:09;;;;;;;6.97;3.40;;;5.70;92.70;;;;;;5064785;28;20097;-79
2020/12/05 09:38:35;;;;;;;7.37;3.80;;;6.30;93.10;;;;;;5074738;28;20103;-78
2020/12/05 09:41:01;;;;;;;6.73;3.33;;;6.90;93.00;;;;;;5074484;28;20116;-78
2020/12/05 09:43:26;;;;;;;5.87;2.70;;;7.60;92.80;;;;;;5073364;28;20119;-79
2020/12/05 09:45:52;;;;;;;5.35;2.25;;;8.30;92.70;;;;;;5074549;28;20116;-79
2020/12/05 09:48:18;;;;;;;4.50;2.15;;;9.00;92.70;;;;;;5056778;28;20044;-79
2020/12/05 09:50:44;;;;;;;5.43;2.38;;;9.80;92.50;;;;;;5074888;28;20032;-79
2020/12/05 09:53:10;;;;;;;3.80;2.13;;;10.40;92.20;;;;;;5074736;28;20021;-78
2020/12/05 09:55:35;;;;;;;4.25;1.70;;;11.10;91.60;;;;;;5073611;28;20071;-79
2020/12/05 09:58:02;;;;;;;4.25;1.60;;;11.70;90.70;;;;;;5066956;28;20036;-79
2020/12/05 10:00:28;;;;;;;3.95;2.08;;;12.40;89.60;;;;;;5053448;28;20048;-79
2020/12/05 10:02:54;;;;;;;2.75;1.40;;;13.00;88.10;;;;;;5053255;28;20036;-79
2020/12/05 10:05:19;;;;;;;4.55;2.13;;;13.40;85.10;;;;;;5054328;28;20473;-83
2020/12/05 10:07:45;;;;;;;3.10;1.50;;;13.90;81.20;;;;;;5054396;28;20071;-82
2020/12/05 10:10:11;;;;;;;4.57;2.00;;;14.30;77.10;;;;;;5052994;28;20029;-83
2020/12/05 10:12:37;;;;;;;4.60;2.05;;;14.60;75.40;;;;;;5053682;28;20060;-82
2020/12/05 10:15:06;;;;;;;4.10;1.60;;;14.90;72.30;;;;;;5053562;28;20028;-83
2020/12/05 10:17:33;;;;;;;3.17;1.77;;;15.00;68.60;;;;;;5054285;28;20055;-82
2020/12/05 10:19:59;;;;;;;4.18;1.67;;;15.10;64.40;;;;;;5052656;28;20441;-82
2020/12/05 10:22:24;;;;;;;2.90;1.70;;;15.10;62.50;;;;;;5020375;28;20120;-84
2020/12/05 10:24:50;;;;;;;4.65;2.10;;;14.90;62.10;;;;;;5054877;28;20036;-82
2020/12/05 10:27:16;;;;;;;2.78;1.35;;;14.90;60.90;;;;;;5054597;28;20473;-82
2020/12/05 10:29:42;;;;;;;3.47;1.80;;;14.70;61.50;;;;;;5053093;28;20081;-83
2020/12/05 10:32:08;;;;;;;3.67;2.50;;;14.50;59.60;;;;;;5036257;28;20080;-81
2020/12/05 10:34:34;;;;;;;3.72;2.03;;;14.40;58.90;;;;;;5053942;28;20548;-83
2020/12/05 10:36:59;;;;;;;3.42;1.60;;;14.30;59.50;;;;;;5052894;28;20108;-82
2020/12/05 10:39:25;;;;;;;3.78;2.05;;;14.10;58.80;;;;;;5036387;28;20059;-83
2020/12/05 10:41:51;;;;;;;5.25;2.40;;;14.20;58.20;;;;;;5052708;28;20112;-83
2020/12/05 10:44:17;;;;;;;3.72;1.95;;;14.30;57.50;;;;;;5052746;28;20029;-83
2020/12/05 10:46:44;;;;;;;3.38;1.88;;;14.50;57.00;;;;;;5019547;28;20094;-83
2020/12/05 10:49:11;;;;;;;3.30;1.60;;;14.60;57.60;;;;;;5052685;28;20053;-83
2020/12/05 10:51:37;;;;;;;3.90;1.77;;;14.80;58.70;;;;;;5052622;28;20058;-83
2020/12/05 10:54:04;;;;;;;5.00;1.45;;;15.20;56.90;;;;;;5052928;28;20033;-83
2020/12/05 10:56:30;;;;;;;2.95;1.35;;;15.60;56.80;;;;;;5052633;28;20435;-83
2020/12/05 10:58:56;;;;;;;2.78;1.48;;;15.80;56.10;;;;;;5054078;28;20029;-84
2020/12/05 11:01:21;;;;;;;3.05;1.42;;;15.90;54.60;;;;;;5052499;28;20117;-83
2020/12/05 11:03:47;;;;;;;2.80;1.48;;;16.00;54.20;;;;;;5053874;28;20481;-84
2020/12/05 11:06:22;;;;;;;4.15;1.30;;;16.20;54.80;;;;;;5052459;28;20036;-84
2020/12/05 11:08:48;;;;;;;3.30;1.50;;;16.20;53.50;;;;;;5035810;28;20087;-83
2020/12/05 11:11:14;;;;;;;2.72;1.42;;;16.30;53.80;;;;;;5052535;28;20427;-84
2020/12/05 11:13:39;;;;;;;2.47;1.02;;;16.30;53.60;;;;;;5071698;28;20024;-83
2020/12/05 11:16:05;;;;;;;4.72;1.83;;;16.50;53.70;;;;;;5053774;28;20033;-85
2020/12/05 11:18:31;;;;;;;1.90;1.00;;;16.60;50.80;;;;;;5052542;28;20037;-84
2020/12/05 11:20:57;;;;;;;5.10;1.45;;;16.40;48.00;;;;;;5035995;28;20132;-83
2020/12/05 11:23:22;;;;;;;3.38;1.60;;;15.90;46.00;;;;;;5035698;28;20090;-82
2020/12/05 11:25:48;;;;;;;3.28;1.40;;;15.50;47.40;;;;;;5052198;28;20033;-82
2020/12/05 11:28:13;;;;;;;3.15;1.50;;;15.20;48.00;;;;;;5051940;28;20108;-83
2020/12/05 11:30:39;;;;;;;4.30;1.60;;;14.80;47.40;;;;;;5035435;28;20025;-81
2020/12/05 11:33:05;;;;;;;3.28;1.17;;;14.40;47.70;;;;;;5055358;28;20034;-82
2020/12/05 11:35:30;;;;;;;3.72;1.45;;;14.00;48.60;;;;;;5052026;28;20030;-82
2020/12/05 11:37:56;;;;;;;3.72;1.10;;;13.70;50.00;;;;;;5059223;28;20028;-81
2020/12/05 11:40:22;;;;;;;5.30;1.30;;;13.70;50.70;;;;;;5058882;28;20039;-81
2020/12/05 11:42:47;;;;;;;3.85;1.38;;;13.80;50.60;;;;;;5025219;28;20446;-82
2020/12/05 11:45:13;;;;;;;4.88;1.60;;;13.90;50.30;;;;;;5054515;28;20158;-82
2020/12/05 11:47:38;;;;;;;2.67;1.17;;;14.00;50.60;;;;;;5059916;28;20497;-82
2020/12/05 11:50:06;;;;;;;3.65;1.27;;;14.10;50.80;;;;;;5035613;28;20033;-81
2020/12/05 11:52:32;;;;;;;2.50;1.33;;;14.30;51.10;;;;;;5066888;28;20021;-81
2020/12/05 11:54:58;;;;;;;4.97;1.52;;;14.30;49.70;;;;;;5056137;28;20028;-83
2020/12/05 11:57:23;;;;;;;3.88;1.48;;;14.30;49.10;;;;;;5071807;28;20021;-81
2020/12/05 11:59:49;;;;;;;5.30;1.70;;;14.50;49.10;;;;;;5055414;28;20028;-82
2020/12/05 12:02:14;;;;;;;4.25;1.40;;;14.70;48.70;;;;;;5055698;28;20491;-83
2020/12/05 12:04:40;;;;;;;2.63;1.27;;;14.90;48.60;;;;;;5071888;28;20107;-83
2020/12/05 12:07:07;;;;;;;9.85;1.30;;;14.90;48.40;;;;;;5072870;28;20414;-81
2020/12/05 12:09:33;;;;;;;2.63;1.15;;;15.10;48.60;;;;;;5039009;28;20108;-81
2020/12/05 12:11:58;;;;;;;4.00;1.48;;;15.50;48.20;;;;;;5018857;28;20099;-82
2020/12/05 12:14:24;;;;;;;5.22;1.42;;;15.80;47.90;;;;;;5053184;28;20171;-82
2020/12/05 12:16:49;;;;;;;3.42;1.13;;;16.10;46.70;;;;;;5052949;28;20483;-83
2020/12/05 12:19:15;;;;;;;3.28;1.10;;;16.50;46.90;;;;;;5051662;28;20061;-82
2020/12/05 12:21:41;;;;;;;4.63;1.30;;;16.70;45.10;;;;;;5051591;28;20033;-82
2020/12/05 12:24:07;;;;;;;4.93;1.10;;;16.50;44.30;;;;;;5059532;28;20041;-82
2020/12/05 12:26:33;;;;;;;4.13;1.58;;;16.50;44.40;;;;;;5051713;28;20079;-80
2020/12/05 12:28:59;;;;;;;3.05;1.02;;;16.40;44.50;;;;;;5072764;28;20017;-83
2020/12/05 12:31:25;;;;;;;1.92;1.02;;;16.40;44.90;;;;;;5071484;28;20098;-82
2020/12/05 12:33:50;;;;;;;2.58;0.95;;;16.40;44.60;;;;;;5054933;28;20553;-82
2020/12/05 12:36:17;;;;;;;5.57;1.33;;;16.60;44.10;;;;;;5071640;28;20029;-83
2020/12/05 12:38:43;;;;;;;2.80;1.15;;;16.50;43.90;;;;;;5071985;28;20435;-81
2020/12/05 12:41:12;;;;;;;5.50;1.05;;;16.30;43.60;;;;;;5054934;28;20052;-81
2020/12/05 12:43:37;;;;;;;2.20;1.10;;;16.30;44.10;;;;;;5060138;28;20111;-83
2020/12/05 12:46:03;;;;;;;2.78;1.13;;;16.50;44.60;;;;;;5055006;28;20108;-84
2020/12/05 12:50:57;;;;;;;5.28;1.23;;;16.40;42.70;;;;;;5055292;28;20041;-82
2020/12/05 12:53:23;;;;;;;2.20;0.90;;;16.10;43.40;;;;;;5038171;28;20101;-82
2020/12/05 12:55:49;;;;;;;3.60;1.10;;;16.10;43.50;;;;;;5054839;28;20029;-81
2020/12/05 12:58:41;;;;;;;2.63;0.93;;;15.70;43.40;;;;;;5056008;28;20036;-83